Wilson Mersin — P3PA6 — position and weather

sailwx.info

Track history (hours):
 
Tides and Currents Weather Stations Pressure Air Temp Water Temp Dewpoint Dewpoint Depression Visibility Wind Speed Wind Dir Waves Ship Positions

Wilson Mersin

Last reported at 2017-Aug-19 13:24 UTC. Time now 2017-Aug-21 14:09 UTC.
Position N 54°40' E 019°49'.

Length 107 m; draft 7 m.

Type: Cargo ship. MMSI: 210072000.

Date/timePositionNaut miles runAvg speedWind from/ knotsBaromVisibWave heightAir tempDewpointWater temp
2017-Aug-19 13:24N 54°40' E 019°49'3 7.4
2017-Aug-19 12:58N 54°42' E 019°44'4 7.5
2017-Aug-19 12:26N 54°44' E 019°38'3 7.8
2017-Aug-19 12:00N 54°45' E 019°33'3 6.3
2017-Aug-19 11:30N 54°46' E 019°28'3 6.2
2017-Aug-19 11:00N 54°47' E 019°22'3 6.3
2017-Aug-19 10:29N 54°47' E 019°17'3 6.4
2017-Aug-19 10:00N 54°48' E 019°12'5 9.1
2017-Aug-19 09:30N 54°49' E 019°04'611.3
2017-Aug-19 09:00N 54°51' E 018°55'611.6
2017-Aug-19 08:30N 54°53' E 018°45'611.4
2017-Aug-19 08:00N 54°54' E 018°36'5 9.6
2017-Aug-19 07:30N 54°54' E 018°27'510.0
2017-Aug-19 07:00N 54°54' E 018°18'510.0
2017-Aug-19 06:30N 54°54' E 018°10'610.0
2017-Aug-19 05:57N 54°53' E 018°00'100 9.4
2017-Aug-18 19:17N 54°52' E 015°07'3 9.3
2017-Aug-18 19:00N 54°52' E 015°02'5 9.4
2017-Aug-18 18:30N 54°53' E 014°54'5 9.9
2017-Aug-18 18:00N 54°54' E 014°45'510.9
2017-Aug-18 17:30N 54°54' E 014°36'611.1
2017-Aug-18 17:00N 54°55' E 014°26'611.1
2017-Aug-18 16:30N 54°56' E 014°17'611.2
2017-Aug-18 16:00N 54°56' E 014°07'611.1
2017-Aug-18 15:27N 54°59' E 013°57'511.1
2017-Aug-18 15:00N 55°01' E 013°49'611.2
2017-Aug-18 14:30N 55°03' E 013°40'2411.2
2017-Aug-18 12:23N 55°12' E 013°02'511.0
2017-Aug-18 11:57N 55°14' E 012°54'510.9
2017-Aug-18 11:30N 55°16' E 012°47'510.8
2017-Aug-18 11:00N 55°18' E 012°38'510.6
2017-Aug-18 10:30N 55°23' E 012°39'510.8
2017-Aug-18 10:00N 55°29' E 012°41'510.1
2017-Aug-18 09:30N 55°34' E 012°42'5 9.9
2017-Aug-18 09:00N 55°39' E 012°41'612.1
2017-Aug-18 08:30N 55°45' E 012°41'612.0
2017-Aug-18 08:00N 55°51' E 012°41'612.2
2017-Aug-18 07:30N 55°57' E 012°38'611.6
2017-Aug-18 07:00N 56°02' E 012°38'5 9.2
2017-Aug-18 06:30N 56°06' E 012°33'510.2
2017-Aug-18 06:00N 56°09' E 012°26'7212.0
2017-Aug-18 00:00N 57°15' E 011°32'612.0
2017-Aug-17 23:30N 57°21' E 011°29'611.6
2017-Aug-17 23:00N 57°26' E 011°25'611.1
2017-Aug-17 22:30N 57°30' E 011°19'612.0
2017-Aug-17 21:59N 57°35' E 011°10'612.3
2017-Aug-17 21:30N 57°39' E 011°02'612.1
2017-Aug-17 21:00N 57°43' E 010°54'611.8
2017-Aug-17 20:29N 57°47' E 010°45'612.1
2017-Aug-17 20:00N 57°47' E 010°35'7212.2
2017-Aug-17 14:09N 57°50' E 008°20'211.6
2017-Aug-17 14:00N 57°50' E 008°17'611.4
2017-Aug-17 13:30N 57°51' E 008°06'611.1
2017-Aug-17 13:00N 57°51' E 007°55'511.0
2017-Aug-17 12:30N 57°51' E 007°45'510.9
2017-Aug-17 12:00N 57°51' E 007°35'510.7
2017-Aug-17 11:30N 57°52' E 007°25'510.6
2017-Aug-17 10:59N 57°52' E 007°15'510.6
2017-Aug-17 10:30N 57°52' E 007°05'510.6
2017-Aug-17 10:00N 57°54' E 006°56'610.8
2017-Aug-17 09:30N 57°56' E 006°47'510.9
2017-Aug-17 09:00N 57°59' E 006°38'510.7
2017-Aug-17 08:30N 58°02' E 006°30'510.6
2017-Aug-17 08:00N 58°05' E 006°22'510.5
2017-Aug-17 07:30N 58°09' E 006°14'510.6
2017-Aug-17 07:00N 58°12' E 006°07'510.4
2017-Aug-17 06:30N 58°16' E 005°59'510.5
2017-Aug-17 06:00N 58°19' E 005°52'510.3
2017-Aug-17 05:30N 58°23' E 005°45'510.1
2017-Aug-17 05:00N 58°26' E 005°37'510.0
2017-Aug-17 04:30N 58°30' E 005°32'510.0
2017-Aug-17 04:00N 58°35' E 005°27'510.1
2017-Aug-17 03:30N 58°39' E 005°22'510.1
2017-Aug-17 03:00N 58°43' E 005°17'510.2
2017-Aug-17 02:30N 58°48' E 005°12'510.2
2017-Aug-17 02:00N 58°52' E 005°07'510.7
2017-Aug-17 01:30N 58°57' E 005°02'610.8
2017-Aug-17 01:00N 59°01' E 004°57'510.8
2017-Aug-17 00:30N 59°06' E 004°51'3810.9
2017-Aug-16 21:00N 59°43' E 004°38'611.7
2017-Aug-16 20:30N 59°49' E 004°37'611.6
2017-Aug-16 19:59N 59°55' E 004°37'611.4
2017-Aug-16 19:30N 60°01' E 004°37'511.2
2017-Aug-16 19:00N 60°06' E 004°37'610.9
2017-Aug-16 18:30N 60°12' E 004°36'510.6
2017-Aug-16 17:59N 60°17' E 004°35'510.2
2017-Aug-16 17:30N 60°22' E 004°35'510.1
2017-Aug-16 17:00N 60°27' E 004°34'510.4
2017-Aug-16 16:30N 60°32' E 004°34'510.4
2017-Aug-16 16:00N 60°38' E 004°33'510.1
2017-Aug-16 15:30N 60°43' E 004°34'5 9.3
2017-Aug-16 15:00N 60°45' E 004°43'4 8.6
2017-Aug-16 14:30N 60°49' E 004°44'510.4
2017-Aug-16 14:00N 60°51' E 004°54'5 9.8
2017-Aug-16 13:30N 60°51' E 005°04'0 0.3
2017-Aug-16 12:58N 60°51' E 005°04'0 0.0
2017-Aug-16 12:28N 60°51' E 005°04'0 0.0
2017-Aug-16 11:58N 60°51' E 005°04'0 0.0
2017-Aug-16 11:28N 60°51' E 005°04'0 0.0
2017-Aug-16 10:58N 60°51' E 005°04'0 0.0
2017-Aug-16 10:28N 60°51' E 005°04'0 0.0
2017-Aug-16 09:58N 60°51' E 005°04'0 0.0
2017-Aug-16 09:28N 60°51' E 005°04'0 0.0
2017-Aug-16 08:58N 60°51' E 005°04'0 0.0
2017-Aug-16 08:25N 60°51' E 005°04'0 0.0
2017-Aug-16 07:58N 60°51' E 005°04'0 0.0
2017-Aug-16 07:28N 60°51' E 005°04'0 0.0
2017-Aug-16 06:58N 60°51' E 005°04'0 0.0
2017-Aug-16 06:28N 60°51' E 005°04'0 0.0
2017-Aug-16 05:58N 60°51' E 005°04'0 0.0
2017-Aug-16 05:28N 60°51' E 005°04'0 0.0
2017-Aug-16 04:58N 60°51' E 005°04'0 0.0
2017-Aug-16 04:28N 60°51' E 005°04'0 0.0
2017-Aug-16 03:58N 60°51' E 005°04'0 0.0
2017-Aug-16 03:28N 60°51' E 005°04'0 0.0
2017-Aug-16 02:58N 60°51' E 005°04'0 0.0
2017-Aug-16 02:28N 60°51' E 005°04'0 0.0
2017-Aug-16 01:58N 60°51' E 005°04'0 0.0
2017-Aug-16 01:28N 60°51' E 005°04'0 0.0
2017-Aug-16 00:58N 60°51' E 005°04'0 0.0
2017-Aug-16 00:28N 60°51' E 005°04'0 0.0
2017-Aug-15 23:58N 60°51' E 005°04'0 0.0
2017-Aug-15 23:28N 60°51' E 005°04'0 0.0
2017-Aug-15 22:58N 60°51' E 005°04'0 0.0
2017-Aug-15 22:28N 60°51' E 005°04'0 0.0
2017-Aug-15 21:58N 60°51' E 005°04'0 0.0
2017-Aug-15 21:28N 60°51' E 005°04'0 0.0
2017-Aug-15 20:58N 60°51' E 005°04'0 0.0
2017-Aug-15 20:28N 60°51' E 005°04'0 0.0
2017-Aug-15 19:58N 60°51' E 005°04'1 1.9
2017-Aug-15 19:30N 60°51' E 005°03'510.7
2017-Aug-15 19:00N 60°51' E 004°52'5 9.7
2017-Aug-15 18:30N 60°47' E 004°45'3 6.4
2017-Aug-15 18:00N 60°45' E 004°40'510.3
2017-Aug-15 17:30N 60°47' E 004°31'510.4
2017-Aug-15 17:00N 60°52' E 004°27'510.1
2017-Aug-15 16:30N 60°57' E 004°25'3 5.6
2017-Aug-15 16:00N 60°60' E 004°25'2 4.7
2017-Aug-15 15:30N 61°02' E 004°25'3 5.1
2017-Aug-15 15:00N 61°05' E 004°25'4 8.2
2017-Aug-15 14:29N 61°09' E 004°25'5 9.7
2017-Aug-15 14:00N 61°14' E 004°25'510.0
2017-Aug-15 13:30N 61°19' E 004°25'510.5
2017-Aug-15 13:00N 61°24' E 004°25'510.5
2017-Aug-15 12:30N 61°29' E 004°25'510.8
2017-Aug-15 12:00N 61°34' E 004°25'510.6
2017-Aug-15 11:30N 61°40' E 004°26'611.5
2017-Aug-15 11:00N 61°41' E 004°37'611.9
2017-Aug-15 10:30N 61°43' E 004°49'611.6
2017-Aug-15 10:00N 61°46' E 004°60'611.5
2017-Aug-15 09:30N 61°46' E 005°12'3 5.3
2017-Aug-15 09:00N 61°46' E 005°18'0 0.0
2017-Aug-15 08:30N 61°46' E 005°18'0 0.0
2017-Aug-15 08:00N 61°46' E 005°18'0 0.0
2017-Aug-15 07:24N 61°46' E 005°18'0 0.0
2017-Aug-15 07:00N 61°46' E 005°18'0 0.0
2017-Aug-15 06:30N 61°46' E 005°18'0 0.0
2017-Aug-15 06:00N 61°46' E 005°18'0 0.0
2017-Aug-15 05:24N 61°46' E 005°18'0 0.0
2017-Aug-15 05:00N 61°46' E 005°18'0 0.0
2017-Aug-15 04:30N 61°46' E 005°18'0 0.0
2017-Aug-15 04:00N 61°46' E 005°18'0 0.0
2017-Aug-15 03:30N 61°46' E 005°18'0 0.0
2017-Aug-15 03:00N 61°46' E 005°18'0 0.0
2017-Aug-15 02:30N 61°46' E 005°18'0 0.0
2017-Aug-15 02:00N 61°46' E 005°18'0 0.0
2017-Aug-15 01:27N 61°46' E 005°18'0 0.0
2017-Aug-15 01:00N 61°46' E 005°18'0 0.0
2017-Aug-15 00:30N 61°46' E 005°18'0 0.0
2017-Aug-15 00:00N 61°46' E 005°18'0 0.0
2017-Aug-14 23:30N 61°46' E 005°18'0 0.0
2017-Aug-14 23:00N 61°46' E 005°18'0 0.0
2017-Aug-14 22:30N 61°46' E 005°18'0 0.0
2017-Aug-14 22:00N 61°46' E 005°18'0 0.0
2017-Aug-14 21:30N 61°46' E 005°18'0 0.0
2017-Aug-14 21:00N 61°46' E 005°18'0 0.0
2017-Aug-14 20:30N 61°46' E 005°18'0 0.0
2017-Aug-14 20:00N 61°46' E 005°18'0 0.0
2017-Aug-14 19:30N 61°46' E 005°18'0 0.0
2017-Aug-14 18:57N 61°46' E 005°18'0 0.0
2017-Aug-14 18:30N 61°46' E 005°18'0 0.0
2017-Aug-14 17:57N 61°46' E 005°18'0 0.0
2017-Aug-14 17:27N 61°46' E 005°18'0 0.0
2017-Aug-14 16:57N 61°46' E 005°18'0 0.0
2017-Aug-14 16:30N 61°46' E 005°18'0 0.0
2017-Aug-14 15:57N 61°46' E 005°18'0 0.0
2017-Aug-14 15:30N 61°46' E 005°18'0 0.0
2017-Aug-14 13:06N 61°46' E 005°18'0 0.0
2017-Aug-14 13:00N 61°46' E 005°18'0 0.0
2017-Aug-14 12:30N 61°46' E 005°18'0 0.0
2017-Aug-14 12:00N 61°46' E 005°18'0 0.0
2017-Aug-14 11:30N 61°46' E 005°18'0 0.0
2017-Aug-14 11:00N 61°46' E 005°18'0 0.0
2017-Aug-14 10:30N 61°46' E 005°18'0 0.0
2017-Aug-14 10:00N 61°46' E 005°18'0 0.0
2017-Aug-14 09:30N 61°46' E 005°18'0 0.0
2017-Aug-14 09:00N 61°46' E 005°18'0 0.0
2017-Aug-14 08:30N 61°46' E 005°18'0 0.0
2017-Aug-14 08:00N 61°46' E 005°18'0 0.0
2017-Aug-14 07:30N 61°46' E 005°18'0 0.0
2017-Aug-14 07:00N 61°46' E 005°18'0 0.0
2017-Aug-14 06:30N 61°46' E 005°18'0 0.0
2017-Aug-14 06:00N 61°46' E 005°18'0 0.0
2017-Aug-14 05:30N 61°46' E 005°18'0 0.0
2017-Aug-14 04:57N 61°46' E 005°18'0 0.0
2017-Aug-14 04:30N 61°46' E 005°18'0 0.0
2017-Aug-14 04:00N 61°46' E 005°18'0 0.0
2017-Aug-14 03:30N 61°46' E 005°18'0 0.0
2017-Aug-14 02:57N 61°46' E 005°18'0 0.0
2017-Aug-14 02:27N 61°46' E 005°18'0 0.0
2017-Aug-14 02:00N 61°46' E 005°18'0 0.0
2017-Aug-14 01:30N 61°46' E 005°18'0 0.0
2017-Aug-14 01:00N 61°46' E 005°18'0 0.0
2017-Aug-14 00:30N 61°46' E 005°18'0 0.0
2017-Aug-14 00:00N 61°46' E 005°18'0 0.0
2017-Aug-13 23:30N 61°46' E 005°18'0 0.0
2017-Aug-13 23:00N 61°46' E 005°18'0 0.0
2017-Aug-13 22:30N 61°46' E 005°18'0 0.0
2017-Aug-13 22:00N 61°46' E 005°18'0 0.0
2017-Aug-13 21:30N 61°46' E 005°18'0 0.0
2017-Aug-13 20:57N 61°46' E 005°18'0 0.0
2017-Aug-13 20:30N 61°46' E 005°18'0 0.0
2017-Aug-13 19:54N 61°46' E 005°18'0 0.0
2017-Aug-13 19:30N 61°46' E 005°18'0 0.0
2017-Aug-13 18:57N 61°46' E 005°18'0 0.0
2017-Aug-13 18:24N 61°46' E 005°18'0 0.0
2017-Aug-13 18:00N 61°46' E 005°18'0 0.0
2017-Aug-13 17:30N 61°46' E 005°18'0 0.0
2017-Aug-13 17:00N 61°46' E 005°18'0 0.0
2017-Aug-13 16:30N 61°46' E 005°18'0 0.0
2017-Aug-13 16:00N 61°46' E 005°18'0 0.0
2017-Aug-13 15:24N 61°46' E 005°18'0 0.0
2017-Aug-13 15:00N 61°46' E 005°18'0 0.0
2017-Aug-13 14:24N 61°46' E 005°18'0 0.0
2017-Aug-13 13:57N 61°46' E 005°18'0 0.0
2017-Aug-13 13:30N 61°46' E 005°18'0 0.0
2017-Aug-13 13:00N 61°46' E 005°18'0 0.0
2017-Aug-13 12:24N 61°46' E 005°18'0 0.0
2017-Aug-13 12:00N 61°46' E 005°18'0 0.0
2017-Aug-13 11:30N 61°46' E 005°18'0 0.0
2017-Aug-13 11:00N 61°46' E 005°18'0 0.0
2017-Aug-13 10:30N 61°46' E 005°18'0 0.0
2017-Aug-13 10:00N 61°46' E 005°18'0 0.0
2017-Aug-13 09:30N 61°46' E 005°18'0 0.0
2017-Aug-13 09:00N 61°46' E 005°18'0 0.0
2017-Aug-13 08:30N 61°46' E 005°18'0 0.0
2017-Aug-13 08:00N 61°46' E 005°18'0 0.0
2017-Aug-13 07:30N 61°46' E 005°18'0 0.0
2017-Aug-13 07:00N 61°46' E 005°18'0 0.0
2017-Aug-13 06:30N 61°46' E 005°18'0 0.0
2017-Aug-13 05:57N 61°46' E 005°18'0 0.0
2017-Aug-13 05:30N 61°46' E 005°18'0 0.0
2017-Aug-13 05:00N 61°46' E 005°18'0 0.0
2017-Aug-13 04:30N 61°46' E 005°18'0 0.0
2017-Aug-13 04:00N 61°46' E 005°18'0 0.0
2017-Aug-13 03:30N 61°46' E 005°18'0 0.0
2017-Aug-13 03:00N 61°46' E 005°18'0 0.0
2017-Aug-13 02:30N 61°46' E 005°18'0 0.0
2017-Aug-13 02:00N 61°46' E 005°18'0 0.0
2017-Aug-13 01:30N 61°46' E 005°18'0 0.0
2017-Aug-13 01:00N 61°46' E 005°18'0 0.0
2017-Aug-13 00:30N 61°46' E 005°18'0 0.0
2017-Aug-12 23:58N 61°46' E 005°18'0 0.0
2017-Aug-12 23:28N 61°46' E 005°18'0 0.4
2017-Aug-12 23:00N 61°46' E 005°17'4 7.3
2017-Aug-12 22:30N 61°46' E 005°09'510.8
2017-Aug-12 22:00N 61°45' E 004°58'510.9
2017-Aug-12 21:30N 61°42' E 004°48'510.7
2017-Aug-12 21:00N 61°41' E 004°37'5 9.3
2017-Aug-12 20:30N 61°39' E 004°29'611.5
2017-Aug-12 20:00N 61°34' E 004°25'611.2
2017-Aug-12 19:30N 61°28' E 004°23'612.2
2017-Aug-12 19:00N 61°22' E 004°22'612.1
2017-Aug-12 18:30N 61°16' E 004°20'612.0
2017-Aug-12 18:00N 61°10' E 004°18'612.2
2017-Aug-12 17:29N 61°04' E 004°16'612.4
2017-Aug-12 17:00N 60°58' E 004°15'14212.5
2017-Aug-12 05:38N 58°37' E 004°35'212.9
2017-Aug-12 05:30N 58°35' E 004°35'613.0
2017-Aug-12 05:00N 58°29' E 004°36'29912.4
2017-Aug-11 04:53N 53°30' E 004°46'711.7
2017-Aug-11 04:17N 53°24' E 004°41'411.5
2017-Aug-11 03:59N 53°21' E 004°38'511.3
2017-Aug-11 03:29N 53°16' E 004°35'511.0
2017-Aug-11 03:00N 53°11' E 004°31'1011.1
2017-Aug-11 02:08N 53°02' E 004°24'310.9
2017-Aug-11 01:51N 52°59' E 004°22'410.9
2017-Aug-11 01:30N 52°56' E 004°19'611.1
2017-Aug-11 01:00N 52°51' E 004°15'611.2
2017-Aug-11 00:30N 52°46' E 004°10'510.9
2017-Aug-11 00:00N 52°41' E 004°07'611.1
2017-Aug-10 23:30N 52°36' E 004°06'611.3
2017-Aug-10 23:00N 52°31' E 004°12'612.6
2017-Aug-10 22:30N 52°30' E 004°22'611.4
2017-Aug-10 22:00N 52°28' E 004°31'3 5.5
2017-Aug-10 21:30N 52°28' E 004°36'1 2.6
2017-Aug-10 21:00N 52°28' E 004°38'2 4.6
2017-Aug-10 20:30N 52°27' E 004°41'3 5.7
2017-Aug-10 20:00N 52°26' E 004°46'2 3.3
2017-Aug-10 19:30N 52°24' E 004°47'0 0.0
2017-Aug-10 19:00N 52°24' E 004°47'0 0.0
2017-Aug-10 18:27N 52°24' E 004°47'0 0.0
2017-Aug-10 18:00N 52°24' E 004°47'0 0.0
2017-Aug-10 17:15N 52°24' E 004°47'0 0.0
2017-Aug-10 17:00N 52°24' E 004°47'0 0.0
2017-Aug-10 16:27N 52°24' E 004°47'0 0.0
2017-Aug-10 15:57N 52°24' E 004°47'0 0.0
2017-Aug-10 15:30N 52°24' E 004°47'0 0.0
2017-Aug-10 15:00N 52°24' E 004°47'0 0.0
2017-Aug-10 14:30N 52°24' E 004°47'0 0.0
2017-Aug-10 13:57N 52°24' E 004°47'0 0.0
2017-Aug-10 13:27N 52°24' E 004°47'0 0.0
2017-Aug-10 12:57N 52°24' E 004°47'0 0.0
2017-Aug-10 12:21N 52°24' E 004°47'0 0.0
2017-Aug-10 12:00N 52°24' E 004°47'0 0.0
2017-Aug-10 11:21N 52°24' E 004°47'0 0.0
2017-Aug-10 10:57N 52°24' E 004°47'0 0.0
2017-Aug-10 10:30N 52°24' E 004°47'0 0.0
2017-Aug-10 09:54N 52°24' E 004°47'0 0.0
2017-Aug-10 09:30N 52°24' E 004°47'0 0.0
2017-Aug-10 09:00N 52°24' E 004°47'0 0.0
2017-Aug-10 08:24N 52°24' E 004°47'0 0.0
2017-Aug-10 08:00N 52°24' E 004°47'0 0.0
2017-Aug-10 07:30N 52°24' E 004°47'0 0.0
2017-Aug-10 07:00N 52°24' E 004°47'0 0.0
2017-Aug-10 06:30N 52°24' E 004°47'0 0.0
2017-Aug-10 06:00N 52°24' E 004°47'0 0.0
2017-Aug-10 05:15N 52°24' E 004°47'0 0.0
2017-Aug-10 05:00N 52°24' E 004°47'0 0.0
2017-Aug-10 04:30N 52°24' E 004°47'0 0.0
2017-Aug-10 04:00N 52°24' E 004°47'0 0.0
2017-Aug-10 03:27N 52°24' E 004°47'0 0.0
2017-Aug-10 03:00N 52°24' E 004°47'0 0.0
2017-Aug-10 02:27N 52°24' E 004°47'0 0.0
2017-Aug-10 02:00N 52°24' E 004°47'0 0.0
2017-Aug-10 01:30N 52°24' E 004°47'0 0.0
2017-Aug-10 00:57N 52°24' E 004°47'0 0.0
2017-Aug-10 00:27N 52°24' E 004°47'0 0.0
2017-Aug-09 23:54N 52°24' E 004°47'0 0.0
2017-Aug-09 23:27N 52°24' E 004°47'0 0.0
2017-Aug-09 23:00N 52°24' E 004°47'0 0.0
2017-Aug-09 22:30N 52°24' E 004°47'0 0.0
2017-Aug-09 22:01N 52°24' E 004°47'0 0.0
2017-Aug-09 21:30N 52°24' E 004°47'0 0.0
2017-Aug-09 21:01N 52°24' E 004°47'0 0.0
2017-Aug-09 20:30N 52°24' E 004°47'0 0.0
2017-Aug-09 20:01N 52°24' E 004°47'0 0.0
2017-Aug-09 19:31N 52°24' E 004°47'0 0.0
2017-Aug-09 19:00N 52°24' E 004°47'0 0.0
2017-Aug-09 18:31N 52°24' E 004°47'0 0.0
2017-Aug-09 18:01N 52°24' E 004°47'0 0.0
2017-Aug-09 17:31N 52°24' E 004°47'0 0.0
2017-Aug-09 17:01N 52°24' E 004°47'0 0.0
2017-Aug-09 16:30N 52°24' E 004°47'0 0.0
2017-Aug-09 16:01N 52°24' E 004°47'0 0.0
2017-Aug-09 15:30N 52°24' E 004°47'0 0.0
2017-Aug-09 15:00N 52°24' E 004°47'0 0.0
2017-Aug-09 14:31N 52°24' E 004°47'0 0.0
2017-Aug-09 14:00N 52°24' E 004°47'0 0.0
2017-Aug-09 13:30N 52°24' E 004°47'  
Track history (hours):
 
Tides and Currents Weather Stations Pressure Air Temp Water Temp Dewpoint Dewpoint Depression Visibility Wind Speed Wind Dir Waves Ship Positions

Wilson Mersin

Last reported at 2017-Aug-19 13:24 UTC. Time now 2017-Aug-21 14:09 UTC.
Position N 54°40' E 019°49'.

Length 107 m; draft 7 m.

Type: Cargo ship. MMSI: 210072000.

Date/timePositionNaut miles runAvg speedWind from/ knotsBaromVisibWave heightAir tempDewpointWater temp
2017-Aug-19 13:24N 54°40' E 019°49'3 7.4
2017-Aug-19 12:58N 54°42' E 019°44'4 7.5
2017-Aug-19 12:26N 54°44' E 019°38'3 7.8
2017-Aug-19 12:00N 54°45' E 019°33'3 6.3
2017-Aug-19 11:30N 54°46' E 019°28'3 6.2
2017-Aug-19 11:00N 54°47' E 019°22'3 6.3
2017-Aug-19 10:29N 54°47' E 019°17'3 6.4
2017-Aug-19 10:00N 54°48' E 019°12'5 9.1
2017-Aug-19 09:30N 54°49' E 019°04'611.3
2017-Aug-19 09:00N 54°51' E 018°55'611.6
2017-Aug-19 08:30N 54°53' E 018°45'611.4
2017-Aug-19 08:00N 54°54' E 018°36'5 9.6
2017-Aug-19 07:30N 54°54' E 018°27'510.0
2017-Aug-19 07:00N 54°54' E 018°18'510.0
2017-Aug-19 06:30N 54°54' E 018°10'610.0
2017-Aug-19 05:57N 54°53' E 018°00'100 9.4
2017-Aug-18 19:17N 54°52' E 015°07'3 9.3
2017-Aug-18 19:00N 54°52' E 015°02'5 9.4
2017-Aug-18 18:30N 54°53' E 014°54'5 9.9
2017-Aug-18 18:00N 54°54' E 014°45'510.9
2017-Aug-18 17:30N 54°54' E 014°36'611.1
2017-Aug-18 17:00N 54°55' E 014°26'611.1
2017-Aug-18 16:30N 54°56' E 014°17'611.2
2017-Aug-18 16:00N 54°56' E 014°07'611.1
2017-Aug-18 15:27N 54°59' E 013°57'511.1
2017-Aug-18 15:00N 55°01' E 013°49'611.2
2017-Aug-18 14:30N 55°03' E 013°40'2411.2
2017-Aug-18 12:23N 55°12' E 013°02'511.0
2017-Aug-18 11:57N 55°14' E 012°54'510.9
2017-Aug-18 11:30N 55°16' E 012°47'510.8
2017-Aug-18 11:00N 55°18' E 012°38'510.6
2017-Aug-18 10:30N 55°23' E 012°39'510.8
2017-Aug-18 10:00N 55°29' E 012°41'510.1
2017-Aug-18 09:30N 55°34' E 012°42'5 9.9
2017-Aug-18 09:00N 55°39' E 012°41'612.1
2017-Aug-18 08:30N 55°45' E 012°41'612.0
2017-Aug-18 08:00N 55°51' E 012°41'612.2
2017-Aug-18 07:30N 55°57' E 012°38'611.6
2017-Aug-18 07:00N 56°02' E 012°38'5 9.2
2017-Aug-18 06:30N 56°06' E 012°33'510.2
2017-Aug-18 06:00N 56°09' E 012°26'7212.0
2017-Aug-18 00:00N 57°15' E 011°32'612.0
2017-Aug-17 23:30N 57°21' E 011°29'611.6
2017-Aug-17 23:00N 57°26' E 011°25'611.1
2017-Aug-17 22:30N 57°30' E 011°19'612.0
2017-Aug-17 21:59N 57°35' E 011°10'612.3
2017-Aug-17 21:30N 57°39' E 011°02'612.1
2017-Aug-17 21:00N 57°43' E 010°54'611.8
2017-Aug-17 20:29N 57°47' E 010°45'612.1
2017-Aug-17 20:00N 57°47' E 010°35'7212.2
2017-Aug-17 14:09N 57°50' E 008°20'211.6
2017-Aug-17 14:00N 57°50' E 008°17'611.4
2017-Aug-17 13:30N 57°51' E 008°06'611.1
2017-Aug-17 13:00N 57°51' E 007°55'511.0
2017-Aug-17 12:30N 57°51' E 007°45'510.9
2017-Aug-17 12:00N 57°51' E 007°35'510.7
2017-Aug-17 11:30N 57°52' E 007°25'510.6
2017-Aug-17 10:59N 57°52' E 007°15'510.6
2017-Aug-17 10:30N 57°52' E 007°05'510.6
2017-Aug-17 10:00N 57°54' E 006°56'610.8
2017-Aug-17 09:30N 57°56' E 006°47'510.9
2017-Aug-17 09:00N 57°59' E 006°38'510.7
2017-Aug-17 08:30N 58°02' E 006°30'510.6
2017-Aug-17 08:00N 58°05' E 006°22'510.5
2017-Aug-17 07:30N 58°09' E 006°14'510.6
2017-Aug-17 07:00N 58°12' E 006°07'510.4
2017-Aug-17 06:30N 58°16' E 005°59'510.5
2017-Aug-17 06:00N 58°19' E 005°52'510.3
2017-Aug-17 05:30N 58°23' E 005°45'510.1
2017-Aug-17 05:00N 58°26' E 005°37'510.0
2017-Aug-17 04:30N 58°30' E 005°32'510.0
2017-Aug-17 04:00N 58°35' E 005°27'510.1
2017-Aug-17 03:30N 58°39' E 005°22'510.1
2017-Aug-17 03:00N 58°43' E 005°17'510.2
2017-Aug-17 02:30N 58°48' E 005°12'510.2
2017-Aug-17 02:00N 58°52' E 005°07'510.7
2017-Aug-17 01:30N 58°57' E 005°02'610.8
2017-Aug-17 01:00N 59°01' E 004°57'510.8
2017-Aug-17 00:30N 59°06' E 004°51'3810.9
2017-Aug-16 21:00N 59°43' E 004°38'611.7
2017-Aug-16 20:30N 59°49' E 004°37'611.6
2017-Aug-16 19:59N 59°55' E 004°37'611.4
2017-Aug-16 19:30N 60°01' E 004°37'511.2
2017-Aug-16 19:00N 60°06' E 004°37'610.9
2017-Aug-16 18:30N 60°12' E 004°36'510.6
2017-Aug-16 17:59N 60°17' E 004°35'510.2
2017-Aug-16 17:30N 60°22' E 004°35'510.1
2017-Aug-16 17:00N 60°27' E 004°34'510.4
2017-Aug-16 16:30N 60°32' E 004°34'510.4
2017-Aug-16 16:00N 60°38' E 004°33'510.1
2017-Aug-16 15:30N 60°43' E 004°34'5 9.3
2017-Aug-16 15:00N 60°45' E 004°43'4 8.6
2017-Aug-16 14:30N 60°49' E 004°44'510.4
2017-Aug-16 14:00N 60°51' E 004°54'5 9.8
2017-Aug-16 13:30N 60°51' E 005°04'0 0.3
2017-Aug-16 12:58N 60°51' E 005°04'0 0.0
2017-Aug-16 12:28N 60°51' E 005°04'0 0.0
2017-Aug-16 11:58N 60°51' E 005°04'0 0.0
2017-Aug-16 11:28N 60°51' E 005°04'0 0.0
2017-Aug-16 10:58N 60°51' E 005°04'0 0.0
2017-Aug-16 10:28N 60°51' E 005°04'0 0.0
2017-Aug-16 09:58N 60°51' E 005°04'0 0.0
2017-Aug-16 09:28N 60°51' E 005°04'0 0.0
2017-Aug-16 08:58N 60°51' E 005°04'0 0.0
2017-Aug-16 08:25N 60°51' E 005°04'0 0.0
2017-Aug-16 07:58N 60°51' E 005°04'0 0.0
2017-Aug-16 07:28N 60°51' E 005°04'0 0.0
2017-Aug-16 06:58N 60°51' E 005°04'0 0.0
2017-Aug-16 06:28N 60°51' E 005°04'0 0.0
2017-Aug-16 05:58N 60°51' E 005°04'0 0.0
2017-Aug-16 05:28N 60°51' E 005°04'0 0.0
2017-Aug-16 04:58N 60°51' E 005°04'0 0.0
2017-Aug-16 04:28N 60°51' E 005°04'0 0.0
2017-Aug-16 03:58N 60°51' E 005°04'0 0.0
2017-Aug-16 03:28N 60°51' E 005°04'0 0.0
2017-Aug-16 02:58N 60°51' E 005°04'0 0.0
2017-Aug-16 02:28N 60°51' E 005°04'0 0.0
2017-Aug-16 01:58N 60°51' E 005°04'0 0.0
2017-Aug-16 01:28N 60°51' E 005°04'0 0.0
2017-Aug-16 00:58N 60°51' E 005°04'0 0.0
2017-Aug-16 00:28N 60°51' E 005°04'0 0.0
2017-Aug-15 23:58N 60°51' E 005°04'0 0.0
2017-Aug-15 23:28N 60°51' E 005°04'0 0.0
2017-Aug-15 22:58N 60°51' E 005°04'0 0.0
2017-Aug-15 22:28N 60°51' E 005°04'0 0.0
2017-Aug-15 21:58N 60°51' E 005°04'0 0.0
2017-Aug-15 21:28N 60°51' E 005°04'0 0.0
2017-Aug-15 20:58N 60°51' E 005°04'0 0.0
2017-Aug-15 20:28N 60°51' E 005°04'0 0.0
2017-Aug-15 19:58N 60°51' E 005°04'1 1.9
2017-Aug-15 19:30N 60°51' E 005°03'510.7
2017-Aug-15 19:00N 60°51' E 004°52'5 9.7
2017-Aug-15 18:30N 60°47' E 004°45'3 6.4
2017-Aug-15 18:00N 60°45' E 004°40'510.3
2017-Aug-15 17:30N 60°47' E 004°31'510.4
2017-Aug-15 17:00N 60°52' E 004°27'510.1
2017-Aug-15 16:30N 60°57' E 004°25'3 5.6
2017-Aug-15 16:00N 60°60' E 004°25'2 4.7
2017-Aug-15 15:30N 61°02' E 004°25'3 5.1
2017-Aug-15 15:00N 61°05' E 004°25'4 8.2
2017-Aug-15 14:29N 61°09' E 004°25'5 9.7
2017-Aug-15 14:00N 61°14' E 004°25'510.0
2017-Aug-15 13:30N 61°19' E 004°25'510.5
2017-Aug-15 13:00N 61°24' E 004°25'510.5
2017-Aug-15 12:30N 61°29' E 004°25'510.8
2017-Aug-15 12:00N 61°34' E 004°25'510.6
2017-Aug-15 11:30N 61°40' E 004°26'611.5
2017-Aug-15 11:00N 61°41' E 004°37'611.9
2017-Aug-15 10:30N 61°43' E 004°49'611.6
2017-Aug-15 10:00N 61°46' E 004°60'611.5
2017-Aug-15 09:30N 61°46' E 005°12'3 5.3
2017-Aug-15 09:00N 61°46' E 005°18'0 0.0
2017-Aug-15 08:30N 61°46' E 005°18'0 0.0
2017-Aug-15 08:00N 61°46' E 005°18'0 0.0
2017-Aug-15 07:24N 61°46' E 005°18'0 0.0
2017-Aug-15 07:00N 61°46' E 005°18'0 0.0
2017-Aug-15 06:30N 61°46' E 005°18'0 0.0
2017-Aug-15 06:00N 61°46' E 005°18'0 0.0
2017-Aug-15 05:24N 61°46' E 005°18'0 0.0
2017-Aug-15 05:00N 61°46' E 005°18'0 0.0
2017-Aug-15 04:30N 61°46' E 005°18'0 0.0
2017-Aug-15 04:00N 61°46' E 005°18'0 0.0
2017-Aug-15 03:30N 61°46' E 005°18'0 0.0
2017-Aug-15 03:00N 61°46' E 005°18'0 0.0
2017-Aug-15 02:30N 61°46' E 005°18'0 0.0
2017-Aug-15 02:00N 61°46' E 005°18'0 0.0
2017-Aug-15 01:27N 61°46' E 005°18'0 0.0
2017-Aug-15 01:00N 61°46' E 005°18'0 0.0
2017-Aug-15 00:30N 61°46' E 005°18'0 0.0
2017-Aug-15 00:00N 61°46' E 005°18'0 0.0
2017-Aug-14 23:30N 61°46' E 005°18'0 0.0
2017-Aug-14 23:00N 61°46' E 005°18'0 0.0
2017-Aug-14 22:30N 61°46' E 005°18'0 0.0
2017-Aug-14 22:00N 61°46' E 005°18'0 0.0
2017-Aug-14 21:30N 61°46' E 005°18'0 0.0
2017-Aug-14 21:00N 61°46' E 005°18'0 0.0
2017-Aug-14 20:30N 61°46' E 005°18'0 0.0
2017-Aug-14 20:00N 61°46' E 005°18'0 0.0
2017-Aug-14 19:30N 61°46' E 005°18'0 0.0
2017-Aug-14 18:57N 61°46' E 005°18'0 0.0
2017-Aug-14 18:30N 61°46' E 005°18'0 0.0
2017-Aug-14 17:57N 61°46' E 005°18'0 0.0
2017-Aug-14 17:27N 61°46' E 005°18'0 0.0
2017-Aug-14 16:57N 61°46' E 005°18'0 0.0
2017-Aug-14 16:30N 61°46' E 005°18'0 0.0
2017-Aug-14 15:57N 61°46' E 005°18'0 0.0
2017-Aug-14 15:30N 61°46' E 005°18'0 0.0
2017-Aug-14 13:06N 61°46' E 005°18'0 0.0
2017-Aug-14 13:00N 61°46' E 005°18'0 0.0
2017-Aug-14 12:30N 61°46' E 005°18'0 0.0
2017-Aug-14 12:00N 61°46' E 005°18'0 0.0
2017-Aug-14 11:30N 61°46' E 005°18'0 0.0
2017-Aug-14 11:00N 61°46' E 005°18'0 0.0
2017-Aug-14 10:30N 61°46' E 005°18'0 0.0
2017-Aug-14 10:00N 61°46' E 005°18'0 0.0
2017-Aug-14 09:30N 61°46' E 005°18'0 0.0
2017-Aug-14 09:00N 61°46' E 005°18'0 0.0
2017-Aug-14 08:30N 61°46' E 005°18'0 0.0
2017-Aug-14 08:00N 61°46' E 005°18'0 0.0
2017-Aug-14 07:30N 61°46' E 005°18'0 0.0
2017-Aug-14 07:00N 61°46' E 005°18'0 0.0
2017-Aug-14 06:30N 61°46' E 005°18'0 0.0
2017-Aug-14 06:00N 61°46' E 005°18'0 0.0
2017-Aug-14 05:30N 61°46' E 005°18'0 0.0
2017-Aug-14 04:57N 61°46' E 005°18'0 0.0
2017-Aug-14 04:30N 61°46' E 005°18'0 0.0
2017-Aug-14 04:00N 61°46' E 005°18'0 0.0
2017-Aug-14 03:30N 61°46' E 005°18'0 0.0
2017-Aug-14 02:57N 61°46' E 005°18'0 0.0
2017-Aug-14 02:27N 61°46' E 005°18'0 0.0
2017-Aug-14 02:00N 61°46' E 005°18'0 0.0
2017-Aug-14 01:30N 61°46' E 005°18'0 0.0
2017-Aug-14 01:00N 61°46' E 005°18'0 0.0
2017-Aug-14 00:30N 61°46' E 005°18'0 0.0
2017-Aug-14 00:00N 61°46' E 005°18'0 0.0
2017-Aug-13 23:30N 61°46' E 005°18'0 0.0
2017-Aug-13 23:00N 61°46' E 005°18'0 0.0
2017-Aug-13 22:30N 61°46' E 005°18'0 0.0
2017-Aug-13 22:00N 61°46' E 005°18'0 0.0
2017-Aug-13 21:30N 61°46' E 005°18'0 0.0
2017-Aug-13 20:57N 61°46' E 005°18'0 0.0
2017-Aug-13 20:30N 61°46' E 005°18'0 0.0
2017-Aug-13 19:54N 61°46' E 005°18'0 0.0
2017-Aug-13 19:30N 61°46' E 005°18'0 0.0
2017-Aug-13 18:57N 61°46' E 005°18'0 0.0
2017-Aug-13 18:24N 61°46' E 005°18'0 0.0
2017-Aug-13 18:00N 61°46' E 005°18'0 0.0
2017-Aug-13 17:30N 61°46' E 005°18'0 0.0
2017-Aug-13 17:00N 61°46' E 005°18'0 0.0
2017-Aug-13 16:30N 61°46' E 005°18'0 0.0
2017-Aug-13 16:00N 61°46' E 005°18'0 0.0
2017-Aug-13 15:24N 61°46' E 005°18'0 0.0
2017-Aug-13 15:00N 61°46' E 005°18'0 0.0
2017-Aug-13 14:24N 61°46' E 005°18'0 0.0
2017-Aug-13 13:57N 61°46' E 005°18'0 0.0
2017-Aug-13 13:30N 61°46' E 005°18'0 0.0
2017-Aug-13 13:00N 61°46' E 005°18'0 0.0
2017-Aug-13 12:24N 61°46' E 005°18'0 0.0
2017-Aug-13 12:00N 61°46' E 005°18'0 0.0
2017-Aug-13 11:30N 61°46' E 005°18'0 0.0
2017-Aug-13 11:00N 61°46' E 005°18'0 0.0
2017-Aug-13 10:30N 61°46' E 005°18'0 0.0
2017-Aug-13 10:00N 61°46' E 005°18'0 0.0
2017-Aug-13 09:30N 61°46' E 005°18'0 0.0
2017-Aug-13 09:00N 61°46' E 005°18'0 0.0
2017-Aug-13 08:30N 61°46' E 005°18'0 0.0
2017-Aug-13 08:00N 61°46' E 005°18'0 0.0
2017-Aug-13 07:30N 61°46' E 005°18'0 0.0
2017-Aug-13 07:00N 61°46' E 005°18'0 0.0
2017-Aug-13 06:30N 61°46' E 005°18'0 0.0
2017-Aug-13 05:57N 61°46' E 005°18'0 0.0
2017-Aug-13 05:30N 61°46' E 005°18'0 0.0
2017-Aug-13 05:00N 61°46' E 005°18'0 0.0
2017-Aug-13 04:30N 61°46' E 005°18'0 0.0
2017-Aug-13 04:00N 61°46' E 005°18'0 0.0
2017-Aug-13 03:30N 61°46' E 005°18'0 0.0
2017-Aug-13 03:00N 61°46' E 005°18'0 0.0
2017-Aug-13 02:30N 61°46' E 005°18'0 0.0
2017-Aug-13 02:00N 61°46' E 005°18'0 0.0
2017-Aug-13 01:30N 61°46' E 005°18'0 0.0
2017-Aug-13 01:00N 61°46' E 005°18'0 0.0
2017-Aug-13 00:30N 61°46' E 005°18'0 0.0
2017-Aug-12 23:58N 61°46' E 005°18'0 0.0
2017-Aug-12 23:28N 61°46' E 005°18'0 0.4
2017-Aug-12 23:00N 61°46' E 005°17'4 7.3
2017-Aug-12 22:30N 61°46' E 005°09'510.8
2017-Aug-12 22:00N 61°45' E 004°58'510.9
2017-Aug-12 21:30N 61°42' E 004°48'510.7
2017-Aug-12 21:00N 61°41' E 004°37'5 9.3
2017-Aug-12 20:30N 61°39' E 004°29'611.5
2017-Aug-12 20:00N 61°34' E 004°25'611.2
2017-Aug-12 19:30N 61°28' E 004°23'612.2
2017-Aug-12 19:00N 61°22' E 004°22'612.1
2017-Aug-12 18:30N 61°16' E 004°20'612.0
2017-Aug-12 18:00N 61°10' E 004°18'612.2
2017-Aug-12 17:29N 61°04' E 004°16'612.4
2017-Aug-12 17:00N 60°58' E 004°15'14212.5
2017-Aug-12 05:38N 58°37' E 004°35'212.9
2017-Aug-12 05:30N 58°35' E 004°35'613.0
2017-Aug-12 05:00N 58°29' E 004°36'29912.4
2017-Aug-11 04:53N 53°30' E 004°46'711.7
2017-Aug-11 04:17N 53°24' E 004°41'411.5
2017-Aug-11 03:59N 53°21' E 004°38'511.3
2017-Aug-11 03:29N 53°16' E 004°35'511.0
2017-Aug-11 03:00N 53°11' E 004°31'1011.1
2017-Aug-11 02:08N 53°02' E 004°24'310.9
2017-Aug-11 01:51N 52°59' E 004°22'410.9
2017-Aug-11 01:30N 52°56' E 004°19'611.1
2017-Aug-11 01:00N 52°51' E 004°15'611.2
2017-Aug-11 00:30N 52°46' E 004°10'510.9
2017-Aug-11 00:00N 52°41' E 004°07'611.1
2017-Aug-10 23:30N 52°36' E 004°06'611.3
2017-Aug-10 23:00N 52°31' E 004°12'612.6
2017-Aug-10 22:30N 52°30' E 004°22'611.4
2017-Aug-10 22:00N 52°28' E 004°31'3 5.5
2017-Aug-10 21:30N 52°28' E 004°36'1 2.6
2017-Aug-10 21:00N 52°28' E 004°38'2 4.6
2017-Aug-10 20:30N 52°27' E 004°41'3 5.7
2017-Aug-10 20:00N 52°26' E 004°46'2 3.3
2017-Aug-10 19:30N 52°24' E 004°47'0 0.0
2017-Aug-10 19:00N 52°24' E 004°47'0 0.0
2017-Aug-10 18:27N 52°24' E 004°47'0 0.0
2017-Aug-10 18:00N 52°24' E 004°47'0 0.0
2017-Aug-10 17:15N 52°24' E 004°47'0 0.0
2017-Aug-10 17:00N 52°24' E 004°47'0 0.0
2017-Aug-10 16:27N 52°24' E 004°47'0 0.0
2017-Aug-10 15:57N 52°24' E 004°47'0 0.0
2017-Aug-10 15:30N 52°24' E 004°47'0 0.0
2017-Aug-10 15:00N 52°24' E 004°47'0 0.0
2017-Aug-10 14:30N 52°24' E 004°47'0 0.0
2017-Aug-10 13:57N 52°24' E 004°47'0 0.0
2017-Aug-10 13:27N 52°24' E 004°47'0 0.0
2017-Aug-10 12:57N 52°24' E 004°47'0 0.0
2017-Aug-10 12:21N 52°24' E 004°47'0 0.0
2017-Aug-10 12:00N 52°24' E 004°47'0 0.0
2017-Aug-10 11:21N 52°24' E 004°47'0 0.0
2017-Aug-10 10:57N 52°24' E 004°47'0 0.0
2017-Aug-10 10:30N 52°24' E 004°47'0 0.0
2017-Aug-10 09:54N 52°24' E 004°47'0 0.0
2017-Aug-10 09:30N 52°24' E 004°47'0 0.0
2017-Aug-10 09:00N 52°24' E 004°47'0 0.0
2017-Aug-10 08:24N 52°24' E 004°47'0 0.0
2017-Aug-10 08:00N 52°24' E 004°47'0 0.0
2017-Aug-10 07:30N 52°24' E 004°47'0 0.0
2017-Aug-10 07:00N 52°24' E 004°47'0 0.0
2017-Aug-10 06:30N 52°24' E 004°47'0 0.0
2017-Aug-10 06:00N 52°24' E 004°47'0 0.0
2017-Aug-10 05:15N 52°24' E 004°47'0 0.0
2017-Aug-10 05:00N 52°24' E 004°47'0 0.0
2017-Aug-10 04:30N 52°24' E 004°47'0 0.0
2017-Aug-10 04:00N 52°24' E 004°47'0 0.0
2017-Aug-10 03:27N 52°24' E 004°47'0 0.0
2017-Aug-10 03:00N 52°24' E 004°47'0 0.0
2017-Aug-10 02:27N 52°24' E 004°47'0 0.0
2017-Aug-10 02:00N 52°24' E 004°47'0 0.0
2017-Aug-10 01:30N 52°24' E 004°47'0 0.0
2017-Aug-10 00:57N 52°24' E 004°47'0 0.0
2017-Aug-10 00:27N 52°24' E 004°47'0 0.0
2017-Aug-09 23:54N 52°24' E 004°47'0 0.0
2017-Aug-09 23:27N 52°24' E 004°47'0 0.0
2017-Aug-09 23:00N 52°24' E 004°47'0 0.0
2017-Aug-09 22:30N 52°24' E 004°47'0 0.0
2017-Aug-09 22:01N 52°24' E 004°47'0 0.0
2017-Aug-09 21:30N 52°24' E 004°47'0 0.0
2017-Aug-09 21:01N 52°24' E 004°47'0 0.0
2017-Aug-09 20:30N 52°24' E 004°47'0 0.0
2017-Aug-09 20:01N 52°24' E 004°47'0 0.0
2017-Aug-09 19:31N 52°24' E 004°47'0 0.0
2017-Aug-09 19:00N 52°24' E 004°47'0 0.0
2017-Aug-09 18:31N 52°24' E 004°47'0 0.0
2017-Aug-09 18:01N 52°24' E 004°47'0 0.0
2017-Aug-09 17:31N 52°24' E 004°47'0 0.0
2017-Aug-09 17:01N 52°24' E 004°47'0 0.0
2017-Aug-09 16:30N 52°24' E 004°47'0 0.0
2017-Aug-09 16:01N 52°24' E 004°47'0 0.0
2017-Aug-09 15:30N 52°24' E 004°47'0 0.0
2017-Aug-09 15:00N 52°24' E 004°47'0 0.0
2017-Aug-09 14:31N 52°24' E 004°47'0 0.0
2017-Aug-09 14:00N 52°24' E 004°47'0 0.0
2017-Aug-09 13:30N 52°24' E 004°47'  

Dump ship's entire track history